createdAt,value
2018-09-24T00:00:17.180Z,7.67
2018-09-24T00:01:14.911Z,7.64
2018-09-24T00:02:14.854Z,7.72
2018-09-24T00:03:14.711Z,7.68
2018-09-24T00:04:14.895Z,7.65
2018-09-24T00:05:14.925Z,7.66
2018-09-24T00:06:15.085Z,7.7
2018-09-24T00:07:14.848Z,7.68
2018-09-24T00:08:14.894Z,7.66
2018-09-24T00:09:15.402Z,7.7
2018-09-24T00:10:14.872Z,7.65
2018-09-24T00:11:14.728Z,7.72
2018-09-24T00:12:14.882Z,7.68
2018-09-24T00:13:15.152Z,7.7
2018-09-24T00:14:14.993Z,7.75
2018-09-24T00:15:14.714Z,7.82
2018-09-24T00:16:14.856Z,7.79
2018-09-24T00:17:14.879Z,7.73
2018-09-24T00:18:14.863Z,7.77
2018-09-24T00:19:14.921Z,7.7
2018-09-24T00:20:14.843Z,7.74
2018-09-24T00:21:14.816Z,7.75
2018-09-24T00:22:14.896Z,7.73
2018-09-24T00:23:14.696Z,7.74
2018-09-24T00:24:14.943Z,7.73
2018-09-24T00:25:14.873Z,7.72
2018-09-24T00:26:14.998Z,7.71
2018-09-24T00:27:14.859Z,7.67
2018-09-24T00:28:14.836Z,7.69
2018-09-24T00:29:14.897Z,7.68
2018-09-24T00:30:15.063Z,7.64
2018-09-24T00:31:14.881Z,7.71
2018-09-24T00:32:14.803Z,7.74
2018-09-24T00:33:14.814Z,7.7
2018-09-24T00:34:14.661Z,7.77
2018-09-24T00:35:14.680Z,7.69
2018-09-24T00:36:14.655Z,7.67
2018-09-24T00:37:14.661Z,7.71
2018-09-24T00:38:14.653Z,7.73
2018-09-24T00:39:14.810Z,7.67
2018-09-24T00:40:14.692Z,7.73
2018-09-24T00:41:14.696Z,7.7
2018-09-24T00:42:14.846Z,7.71
2018-09-24T00:43:15.231Z,7.69
2018-09-24T00:44:14.933Z,7.7
2018-09-24T00:45:14.839Z,7.74
2018-09-24T00:46:14.854Z,7.77
2018-09-24T00:47:14.781Z,7.78
2018-09-24T00:48:14.656Z,7.77
2018-09-24T00:49:14.894Z,7.76
2018-09-24T00:50:14.699Z,7.74
2018-09-24T00:51:14.805Z,7.76
2018-09-24T00:52:14.839Z,7.76
2018-09-24T00:53:14.960Z,7.7
2018-09-24T00:54:14.788Z,7.71
2018-09-24T00:55:15.014Z,7.67
2018-09-24T00:56:14.844Z,7.71
2018-09-24T00:57:14.841Z,7.7
2018-09-24T00:58:14.624Z,7.71
2018-09-24T00:59:14.614Z,7.7
2018-09-24T01:00:14.658Z,7.74
2018-09-24T01:01:15.393Z,7.78
2018-09-24T01:02:14.870Z,7.82
2018-09-24T01:03:14.643Z,7.71
2018-09-24T01:04:14.825Z,7.67
2018-09-24T01:05:14.870Z,7.7
2018-09-24T01:06:14.858Z,7.69
2018-09-24T01:07:14.871Z,7.72
2018-09-24T01:08:14.716Z,7.67
2018-09-24T01:09:14.899Z,7.68
2018-09-24T01:10:14.796Z,7.69
2018-09-24T01:11:14.689Z,7.72
2018-09-24T01:12:14.623Z,7.72
2018-09-24T01:13:14.801Z,7.67
2018-09-24T01:14:14.616Z,7.7
2018-09-24T01:15:14.536Z,7.68
2018-09-24T01:16:14.775Z,7.73
2018-09-24T01:17:14.851Z,7.76
2018-09-24T01:18:14.785Z,7.8
2018-09-24T01:19:14.722Z,7.72
2018-09-24T01:20:14.956Z,7.77
2018-09-24T01:21:14.676Z,7.81
2018-09-24T01:22:15.084Z,7.7
2018-09-24T01:23:15.327Z,7.7
2018-09-24T01:24:14.645Z,7.71
2018-09-24T01:25:14.628Z,7.79
2018-09-24T01:26:15.172Z,7.8
2018-09-24T01:27:14.805Z,7.79
2018-09-24T01:28:14.804Z,7.8
2018-09-24T01:29:14.755Z,7.76
2018-09-24T01:30:14.762Z,7.68
2018-09-24T01:31:14.808Z,7.71
2018-09-24T01:32:14.740Z,7.68
2018-09-24T01:33:14.914Z,7.71
2018-09-24T01:34:14.613Z,7.69
2018-09-24T01:35:14.697Z,7.68
2018-09-24T01:36:14.807Z,7.73
2018-09-24T01:37:14.931Z,7.72
2018-09-24T01:38:14.902Z,7.72
2018-09-24T01:39:14.763Z,7.75
2018-09-24T01:40:14.875Z,7.78
2018-09-24T01:41:14.877Z,7.75
2018-09-24T01:42:14.810Z,7.72
2018-09-24T01:43:14.722Z,7.74
2018-09-24T01:44:14.587Z,7.76
2018-09-24T01:45:14.666Z,7.8
2018-09-24T01:46:14.751Z,7.79
2018-09-24T01:47:14.560Z,7.81
2018-09-24T01:48:14.779Z,7.81
2018-09-24T01:49:14.796Z,7.81
2018-09-24T01:50:14.538Z,7.85
2018-09-24T01:51:15.107Z,7.82
2018-09-24T01:52:14.723Z,7.82
2018-09-24T01:53:14.582Z,7.79
2018-09-24T01:54:14.737Z,7.76
2018-09-24T01:55:14.776Z,7.78
2018-09-24T01:56:14.716Z,7.76
2018-09-24T01:57:14.712Z,7.78
2018-09-24T01:58:14.683Z,7.72
2018-09-24T01:59:14.576Z,7.76
2018-09-24T02:00:14.613Z,7.72
2018-09-24T02:01:14.621Z,7.77
2018-09-24T02:02:14.532Z,7.8
2018-09-24T02:03:14.742Z,7.8
2018-09-24T02:04:14.724Z,7.8
2018-09-24T02:05:14.788Z,7.82
2018-09-24T02:06:14.846Z,7.79
2018-09-24T02:07:14.621Z,7.82
2018-09-24T02:08:14.632Z,7.85
2018-09-24T02:09:14.611Z,7.76
2018-09-24T02:10:14.585Z,7.8
2018-09-24T02:11:14.765Z,7.86
2018-09-24T02:12:14.838Z,7.83
2018-09-24T02:13:14.742Z,7.87
2018-09-24T02:14:14.717Z,7.82
2018-09-24T02:15:14.891Z,7.76
2018-09-24T02:16:14.793Z,7.77
2018-09-24T02:17:14.793Z,7.76
2018-09-24T02:18:14.863Z,7.83
2018-09-24T02:19:14.669Z,7.8
2018-09-24T02:20:14.773Z,7.8
2018-09-24T02:21:14.766Z,7.75
2018-09-24T02:22:14.520Z,7.76
2018-09-24T02:23:14.541Z,7.76
2018-09-24T02:24:14.645Z,7.77
2018-09-24T02:25:14.618Z,7.76
2018-09-24T02:26:14.791Z,7.78
2018-09-24T02:27:14.757Z,7.81
2018-09-24T02:28:14.694Z,7.86
2018-09-24T02:29:14.986Z,7.82
2018-09-24T02:30:14.791Z,7.81
2018-09-24T02:31:14.690Z,7.85
2018-09-24T02:32:14.649Z,7.85
2018-09-24T02:33:14.720Z,7.83
2018-09-24T02:34:14.715Z,7.85
2018-09-24T02:35:14.653Z,7.83
2018-09-24T02:36:14.721Z,7.86
2018-09-24T02:37:14.571Z,7.87
2018-09-24T02:38:14.654Z,7.85
2018-09-24T02:39:14.523Z,7.79
2018-09-24T02:40:14.656Z,7.76
2018-09-24T02:41:14.729Z,7.76
2018-09-24T02:42:14.846Z,7.75
2018-09-24T02:43:15.178Z,7.75
2018-09-24T02:44:14.556Z,7.73
2018-09-24T02:45:14.694Z,7.73
2018-09-24T02:46:14.870Z,7.73
2018-09-24T02:47:14.628Z,7.71
2018-09-24T02:48:14.641Z,7.77
2018-09-24T02:49:14.623Z,7.8
2018-09-24T02:50:14.534Z,7.79
2018-09-24T02:51:14.664Z,7.72
2018-09-24T02:52:14.745Z,7.71
2018-09-24T02:53:14.497Z,7.76
2018-09-24T02:54:14.595Z,7.78
2018-09-24T02:55:14.663Z,7.8
2018-09-24T02:56:14.703Z,7.75
2018-09-24T02:57:14.677Z,7.72
2018-09-24T02:58:14.638Z,7.7
2018-09-24T02:59:14.492Z,7.72
2018-09-24T03:00:14.525Z,7.68
2018-09-24T03:01:15.157Z,7.68
2018-09-24T03:02:14.759Z,7.71
2018-09-24T03:03:14.509Z,7.73
2018-09-24T03:04:14.678Z,7.69
2018-09-24T03:05:14.665Z,7.65
2018-09-24T03:06:14.662Z,7.66
2018-09-24T03:07:14.674Z,7.67
2018-09-24T03:08:14.652Z,7.72
2018-09-24T03:09:14.753Z,7.74
2018-09-24T03:10:14.731Z,7.74
2018-09-24T03:11:14.534Z,7.72
2018-09-24T03:12:14.652Z,7.75
2018-09-24T03:13:14.456Z,7.72
2018-09-24T03:14:14.457Z,7.72
2018-09-24T03:15:14.606Z,7.69
2018-09-24T03:16:14.540Z,7.69
2018-09-24T03:17:14.561Z,7.7
2018-09-24T03:18:14.593Z,7.7
2018-09-24T03:19:14.630Z,7.72
2018-09-24T03:20:14.668Z,7.74
2018-09-24T03:21:14.843Z,7.75
2018-09-24T03:22:14.441Z,7.73
2018-09-24T03:23:14.585Z,7.73
2018-09-24T03:24:14.489Z,7.72
2018-09-24T03:25:14.556Z,7.69
2018-09-24T03:26:15.289Z,7.69
2018-09-24T03:27:14.422Z,7.66
2018-09-24T03:28:14.603Z,7.68
2018-09-24T03:29:14.462Z,7.72
2018-09-24T03:30:14.489Z,7.68
2018-09-24T03:31:14.450Z,7.74
2018-09-24T03:32:14.583Z,7.74
2018-09-24T03:33:14.577Z,7.77
2018-09-24T03:34:14.454Z,7.72
2018-09-24T03:35:14.423Z,7.69
2018-09-24T03:36:14.631Z,7.7
2018-09-24T03:37:14.607Z,7.71
2018-09-24T03:38:14.615Z,7.65
2018-09-24T03:39:14.620Z,7.66
2018-09-24T03:40:14.930Z,7.65
2018-09-24T03:41:14.650Z,7.74
2018-09-24T03:42:14.636Z,7.7
2018-09-24T03:43:14.491Z,7.69
2018-09-24T03:44:14.646Z,7.72
2018-09-24T03:45:14.530Z,7.75
2018-09-24T03:46:14.424Z,7.76
2018-09-24T03:47:14.485Z,7.75
2018-09-24T03:48:14.523Z,7.65
2018-09-24T03:49:14.578Z,7.65
2018-09-24T03:50:14.742Z,7.68
2018-09-24T03:51:14.370Z,7.71
2018-09-24T03:52:14.652Z,7.67
2018-09-24T03:53:14.560Z,7.71
2018-09-24T03:54:14.633Z,7.76
2018-09-24T03:55:14.581Z,7.69
2018-09-24T03:56:14.609Z,7.69
2018-09-24T03:57:14.656Z,7.74
2018-09-24T03:58:14.757Z,7.73
2018-09-24T03:59:14.700Z,7.71
2018-09-24T04:00:14.598Z,7.75
2018-09-24T04:01:14.462Z,7.74
2018-09-24T04:02:14.561Z,7.76
2018-09-24T04:03:14.462Z,7.76
2018-09-24T04:04:14.662Z,7.77
2018-09-24T04:05:14.568Z,7.76
2018-09-24T04:06:14.552Z,7.69
2018-09-24T04:07:14.474Z,7.68
2018-09-24T04:08:14.714Z,7.65
2018-09-24T04:09:14.621Z,7.65
2018-09-24T04:10:15.296Z,7.66
2018-09-24T04:11:14.716Z,7.59
2018-09-24T04:12:14.565Z,7.65
2018-09-24T04:13:14.385Z,7.7
2018-09-24T04:14:14.597Z,7.67
2018-09-24T04:15:14.544Z,7.66
2018-09-24T04:16:14.730Z,7.66
2018-09-24T04:17:14.545Z,7.67
2018-09-24T04:18:14.477Z,7.68
2018-09-24T04:19:14.561Z,7.66
2018-09-24T04:20:14.750Z,7.68
2018-09-24T04:21:14.514Z,7.67
2018-09-24T04:22:14.345Z,7.67
2018-09-24T04:23:14.417Z,7.64
2018-09-24T04:24:14.983Z,7.63
2018-09-24T04:25:14.685Z,7.65
2018-09-24T04:26:15.222Z,7.65
2018-09-24T04:27:14.567Z,7.68
2018-09-24T04:28:14.616Z,7.67
2018-09-24T04:29:14.549Z,7.64
2018-09-24T04:30:14.593Z,7.67
2018-09-24T04:31:14.379Z,7.64
2018-09-24T04:32:14.516Z,7.63
2018-09-24T04:33:14.452Z,7.66
2018-09-24T04:34:14.447Z,7.67
2018-09-24T04:35:14.347Z,7.64
2018-09-24T04:36:14.492Z,7.66
2018-09-24T04:37:14.620Z,7.64
2018-09-24T04:38:14.500Z,7.67
2018-09-24T04:39:14.544Z,7.63
2018-09-24T04:40:14.373Z,7.63
2018-09-24T04:41:14.474Z,7.59
2018-09-24T04:42:14.784Z,7.63
2018-09-24T04:43:14.749Z,7.65
2018-09-24T04:44:14.534Z,7.63
2018-09-24T04:45:14.466Z,7.6
2018-09-24T04:46:14.320Z,7.62
2018-09-24T04:47:14.309Z,7.65
2018-09-24T04:48:14.292Z,7.63
2018-09-24T04:49:14.942Z,7.63
2018-09-24T04:50:14.306Z,7.6
2018-09-24T04:51:14.495Z,7.6
2018-09-24T04:52:14.466Z,7.62
2018-09-24T04:53:14.490Z,7.62
2018-09-24T04:54:14.455Z,7.6
2018-09-24T04:55:14.488Z,7.57
2018-09-24T04:56:14.457Z,7.59
2018-09-24T04:57:14.535Z,7.55
2018-09-24T04:58:14.502Z,7.56
2018-09-24T04:59:14.516Z,7.58
2018-09-24T05:00:14.528Z,7.55
2018-09-24T05:01:14.429Z,7.56
2018-09-24T05:02:14.457Z,7.57
2018-09-24T05:03:14.649Z,7.57
2018-09-24T05:04:14.882Z,7.58
2018-09-24T05:05:14.432Z,7.54
2018-09-24T05:06:14.506Z,7.53
2018-09-24T05:07:14.301Z,7.56
2018-09-24T05:08:14.437Z,7.57
2018-09-24T05:09:14.442Z,7.54
2018-09-24T05:10:14.792Z,7.54
2018-09-24T05:11:14.322Z,7.5
2018-09-24T05:12:14.298Z,7.51
2018-09-24T05:13:14.518Z,7.54
2018-09-24T05:14:14.523Z,7.55
2018-09-24T05:15:14.495Z,7.57
2018-09-24T05:16:15.095Z,7.56
2018-09-24T05:17:14.429Z,7.53
2018-09-24T05:18:14.490Z,7.54
2018-09-24T05:19:14.487Z,7.55
2018-09-24T05:20:15.258Z,7.56
2018-09-24T05:21:14.323Z,7.54
2018-09-24T05:22:14.438Z,7.53
2018-09-24T05:23:14.541Z,7.53
2018-09-24T05:24:14.361Z,7.5
2018-09-24T05:25:14.498Z,7.52
2018-09-24T05:26:14.322Z,7.5
2018-09-24T05:27:14.496Z,7.5
2018-09-24T05:28:14.575Z,7.47
2018-09-24T05:29:14.549Z,7.48
2018-09-24T05:30:14.432Z,7.49
2018-09-24T05:31:14.422Z,7.49
2018-09-24T05:32:15.032Z,7.47
2018-09-24T05:33:14.525Z,7.47
2018-09-24T05:34:14.796Z,7.47
2018-09-24T05:35:14.262Z,7.45
2018-09-24T05:36:14.266Z,7.47
2018-09-24T05:37:14.788Z,7.46
2018-09-24T05:38:14.236Z,7.45
2018-09-24T05:39:14.394Z,7.47
2018-09-24T05:40:14.366Z,7.48
2018-09-24T05:41:15.020Z,7.46
2018-09-24T05:42:14.440Z,7.45
2018-09-24T05:43:14.283Z,7.46
2018-09-24T05:44:14.348Z,7.46
2018-09-24T05:45:14.255Z,7.44
2018-09-24T05:46:14.772Z,7.4
2018-09-24T05:47:14.405Z,7.43
2018-09-24T05:48:14.214Z,7.4
2018-09-24T05:49:14.412Z,7.43
2018-09-24T05:50:14.492Z,7.43
2018-09-24T05:51:14.324Z,7.43
2018-09-24T05:52:14.371Z,7.43
2018-09-24T05:53:14.704Z,7.44
2018-09-24T05:54:14.795Z,7.42
2018-09-24T05:55:14.389Z,7.44
2018-09-24T05:56:14.508Z,7.43
2018-09-24T05:57:14.195Z,7.44
2018-09-24T05:58:14.777Z,7.43
2018-09-24T05:59:14.418Z,7.43
2018-09-24T06:00:14.436Z,7.45
2018-09-24T06:01:14.182Z,7.44
2018-09-24T06:02:14.473Z,7.42
2018-09-24T06:03:14.250Z,7.44
2018-09-24T06:04:14.184Z,7.45
2018-09-24T06:05:14.357Z,7.43
2018-09-24T06:06:14.212Z,7.42
2018-09-24T06:07:14.164Z,7.46
2018-09-24T06:08:14.415Z,7.45
2018-09-24T06:09:14.375Z,7.47
2018-09-24T06:10:14.318Z,7.46
2018-09-24T06:11:14.161Z,7.5
2018-09-24T06:12:14.248Z,7.51
2018-09-24T06:13:14.289Z,7.5
2018-09-24T06:14:14.314Z,7.51
2018-09-24T06:15:14.169Z,7.55
2018-09-24T06:16:14.199Z,7.55
2018-09-24T06:17:14.373Z,7.54
2018-09-24T06:18:14.325Z,7.56
2018-09-24T06:19:14.331Z,7.56
2018-09-24T06:20:14.324Z,7.55
2018-09-24T06:21:14.298Z,7.6
2018-09-24T06:22:14.341Z,7.61
2018-09-24T06:23:14.332Z,7.64
2018-09-24T06:24:14.251Z,7.62
2018-09-24T06:25:14.600Z,7.68
2018-09-24T06:26:14.381Z,7.7
2018-09-24T06:27:14.357Z,7.64
2018-09-24T06:28:14.583Z,7.62
2018-09-24T06:29:14.341Z,7.69
2018-09-24T06:30:14.339Z,7.66
2018-09-24T06:31:14.402Z,7.7
2018-09-24T06:32:14.268Z,7.71
2018-09-24T06:33:14.311Z,7.7
2018-09-24T06:34:14.687Z,7.71
2018-09-24T06:35:14.343Z,7.69
2018-09-24T06:36:14.179Z,7.71
2018-09-24T06:37:14.300Z,7.72
2018-09-24T06:38:14.336Z,7.71
2018-09-24T06:39:14.504Z,7.72
2018-09-24T06:40:14.340Z,7.72
2018-09-24T06:41:14.690Z,7.73
2018-09-24T06:42:14.263Z,7.74
2018-09-24T06:43:14.249Z,7.75
2018-09-24T06:44:14.448Z,7.75
2018-09-24T06:45:14.354Z,7.73
2018-09-24T06:46:14.280Z,7.75
2018-09-24T06:47:14.359Z,7.74
2018-09-24T06:48:14.390Z,7.74
2018-09-24T06:49:14.290Z,7.76
2018-09-24T06:50:14.307Z,7.78
2018-09-24T06:51:14.286Z,7.76
2018-09-24T06:52:14.291Z,7.75
2018-09-24T06:53:14.326Z,7.79
2018-09-24T06:54:14.335Z,7.75
2018-09-24T06:55:14.414Z,7.73
2018-09-24T06:56:14.386Z,7.78
2018-09-24T06:57:14.253Z,7.8
2018-09-24T06:58:14.184Z,7.72
2018-09-24T06:59:14.164Z,7.71
2018-09-24T07:00:14.283Z,7.61
2018-09-24T07:01:14.458Z,7.6
2018-09-24T07:02:14.203Z,7.62
2018-09-24T07:03:14.201Z,7.64
2018-09-24T07:04:14.300Z,7.61
2018-09-24T07:05:14.339Z,7.59
2018-09-24T07:06:14.289Z,7.62
2018-09-24T07:07:14.339Z,7.56
2018-09-24T07:08:14.393Z,7.54
2018-09-24T07:09:14.279Z,7.57
2018-09-24T07:10:14.251Z,7.58
2018-09-24T07:11:14.493Z,7.58
2018-09-24T07:12:14.332Z,7.61
2018-09-24T07:13:16.784Z,7.63
2018-09-24T07:14:14.584Z,7.59
2018-09-24T07:15:14.255Z,7.58
2018-09-24T07:16:14.416Z,7.59
2018-09-24T07:17:14.264Z,7.63
2018-09-24T07:18:14.273Z,7.65
2018-09-24T07:19:14.312Z,7.67
2018-09-24T07:20:14.415Z,7.62
2018-09-24T07:21:14.214Z,7.68
2018-09-24T07:22:14.401Z,7.69
2018-09-24T07:23:14.248Z,7.67
2018-09-24T07:24:14.172Z,7.64
2018-09-24T07:25:14.418Z,7.67
2018-09-24T07:26:14.146Z,7.63
2018-09-24T07:27:14.324Z,7.66
2018-09-24T07:28:14.613Z,7.67
2018-09-24T07:29:14.305Z,7.63
2018-09-24T07:30:14.270Z,7.64
2018-09-24T07:31:14.223Z,7.62
2018-09-24T07:32:14.267Z,7.63
2018-09-24T07:33:14.892Z,7.71
2018-09-24T07:34:14.211Z,7.66
2018-09-24T07:35:14.346Z,7.68
2018-09-24T07:36:14.109Z,7.62
2018-09-24T07:37:14.219Z,7.55
2018-09-24T07:38:14.094Z,7.66
2018-09-24T07:39:14.243Z,7.56
2018-09-24T07:40:14.318Z,7.62
2018-09-24T07:41:14.200Z,7.61
2018-09-24T07:42:14.223Z,7.61
2018-09-24T07:43:15.181Z,7.61
2018-09-24T07:44:14.256Z,7.55
2018-09-24T07:45:14.080Z,7.58
2018-09-24T07:46:14.203Z,7.62
2018-09-24T07:47:14.249Z,7.62
2018-09-24T07:48:14.098Z,7.64
2018-09-24T07:49:14.243Z,7.67
2018-09-24T07:50:14.143Z,7.62
2018-09-24T07:51:14.256Z,7.59
2018-09-24T07:52:14.135Z,7.58
2018-09-24T07:53:14.255Z,7.57
2018-09-24T07:54:14.263Z,7.54
2018-09-24T07:55:14.300Z,7.52
2018-09-24T07:56:14.336Z,7.5
2018-09-24T07:57:14.202Z,7.47
2018-09-24T07:58:14.292Z,7.49
2018-09-24T07:59:14.207Z,7.53
2018-09-24T08:00:14.108Z,7.53
2018-09-24T08:01:14.111Z,7.45
2018-09-24T08:02:14.248Z,7.5
2018-09-24T08:03:14.019Z,7.53
2018-09-24T08:04:14.138Z,7.49
2018-09-24T08:05:14.186Z,7.48
2018-09-24T08:06:14.404Z,7.53
2018-09-24T08:07:14.969Z,7.49
2018-09-24T08:08:14.315Z,7.49
2018-09-24T08:09:14.142Z,7.52
2018-09-24T08:10:14.343Z,7.52
2018-09-24T08:11:14.414Z,7.53
2018-09-24T08:12:14.636Z,7.57
2018-09-24T08:13:14.639Z,7.58
2018-09-24T08:14:14.638Z,7.51
2018-09-24T08:15:14.004Z,7.54
2018-09-24T08:16:14.444Z,7.59
2018-09-24T08:17:14.120Z,7.56
2018-09-24T08:18:14.692Z,7.59
2018-09-24T08:19:14.178Z,7.58
2018-09-24T08:20:14.177Z,7.55
2018-09-24T08:21:14.505Z,7.61
2018-09-24T08:22:14.091Z,7.62
2018-09-24T08:23:14.244Z,7.48
2018-09-24T08:24:14.289Z,7.55
2018-09-24T08:25:14.139Z,7.59
2018-09-24T08:26:14.585Z,7.57
2018-09-24T08:27:14.278Z,7.48
2018-09-24T08:28:14.097Z,7.39
2018-09-24T08:29:14.154Z,7.43
2018-09-24T08:30:14.185Z,7.47
2018-09-24T08:31:14.155Z,7.49
2018-09-24T08:32:14.199Z,7.45
2018-09-24T08:33:14.214Z,7.54
2018-09-24T08:34:14.181Z,7.53
2018-09-24T08:35:14.044Z,7.57
2018-09-24T08:36:14.587Z,7.6
2018-09-24T08:37:14.020Z,7.65
2018-09-24T08:38:14.613Z,7.6
2018-09-24T08:39:14.217Z,7.44
2018-09-24T08:40:14.155Z,7.51
2018-09-24T08:41:14.284Z,7.58
2018-09-24T08:42:14.126Z,7.6
2018-09-24T08:43:14.177Z,7.49
2018-09-24T08:44:15.073Z,7.59
2018-09-24T08:45:14.333Z,7.68
2018-09-24T08:46:14.144Z,7.58
2018-09-24T08:47:14.334Z,7.45
2018-09-24T08:48:14.154Z,7.45
2018-09-24T08:49:14.311Z,7.44
2018-09-24T08:50:14.180Z,7.45
2018-09-24T08:51:14.150Z,7.53
2018-09-24T08:52:14.184Z,7.48
2018-09-24T08:53:14.358Z,7.48
2018-09-24T08:54:14.003Z,7.47
2018-09-24T08:55:14.159Z,7.54
2018-09-24T08:56:14.166Z,7.47
2018-09-24T08:57:14.709Z,7.34
2018-09-24T08:58:13.933Z,7.43
2018-09-24T08:59:14.117Z,7.38
2018-09-24T09:00:14.036Z,7.42
2018-09-24T09:01:14.104Z,7.46
2018-09-24T09:02:14.215Z,7.41
2018-09-24T09:03:14.118Z,7.33
2018-09-24T09:04:14.315Z,7.29
2018-09-24T09:05:14.092Z,7.34
2018-09-24T09:06:14.107Z,7.43
2018-09-24T09:07:14.288Z,7.35
2018-09-24T09:08:14.450Z,7.46
2018-09-24T09:09:14.133Z,7.36
2018-09-24T09:10:14.194Z,7.37
2018-09-24T09:11:14.161Z,7.39
2018-09-24T09:12:14.088Z,7.35
2018-09-24T09:13:14.188Z,7.24
2018-09-24T09:14:14.030Z,7.25
2018-09-24T09:15:13.965Z,7.23
2018-09-24T09:16:14.369Z,7.25
2018-09-24T09:17:13.900Z,7.29
2018-09-24T09:18:14.233Z,7.33
2018-09-24T09:19:14.237Z,7.37
2018-09-24T09:20:14.253Z,7.42
2018-09-24T09:21:14.138Z,7.37
2018-09-24T09:22:14.127Z,7.37
2018-09-24T09:23:14.070Z,7.45
2018-09-24T09:24:14.039Z,7.56
2018-09-24T09:25:14.122Z,7.52
2018-09-24T09:26:14.352Z,7.54
2018-09-24T09:27:13.922Z,7.58
2018-09-24T09:28:14.133Z,7.58
2018-09-24T09:29:14.550Z,7.5
2018-09-24T09:30:13.921Z,7.5
2018-09-24T09:31:14.057Z,7.52
2018-09-24T09:32:14.140Z,7.35
2018-09-24T09:33:14.166Z,7.41
2018-09-24T09:34:14.081Z,7.45
2018-09-24T09:35:14.570Z,7.45
2018-09-24T09:36:14.151Z,7.39
2018-09-24T09:37:14.158Z,7.58
2018-09-24T09:38:14.200Z,7.56
2018-09-24T09:39:13.893Z,7.48
2018-09-24T09:40:14.055Z,7.4
2018-09-24T09:41:14.991Z,7.21
2018-09-24T09:42:14.127Z,7
2018-09-24T09:43:14.134Z,6.96
2018-09-24T09:44:14.071Z,6.98
2018-09-24T09:45:14.183Z,6.88
2018-09-24T09:46:14.086Z,7.12
2018-09-24T09:47:14.064Z,7.01
2018-09-24T09:48:14.232Z,7.12
2018-09-24T09:49:13.915Z,6.93
2018-09-24T09:50:14.154Z,7.04
2018-09-24T09:51:14.327Z,7
2018-09-24T09:52:13.903Z,7.11
2018-09-24T09:53:14.068Z,6.97
2018-09-24T09:54:13.904Z,7.16
2018-09-24T09:55:14.102Z,7.22
2018-09-24T09:56:14.195Z,7.06
2018-09-24T09:57:14.093Z,7.07
2018-09-24T09:58:14.176Z,7.06
2018-09-24T09:59:14.794Z,7.06
2018-09-24T10:00:13.944Z,7.09
2018-09-24T10:01:13.903Z,7.05
2018-09-24T10:02:14.224Z,7.14
2018-09-24T10:03:14.191Z,7.01
2018-09-24T10:04:13.992Z,7.22
2018-09-24T10:05:13.886Z,7.07
2018-09-24T10:06:13.919Z,7.08
2018-09-24T10:07:14.371Z,7.1
2018-09-24T10:08:13.844Z,7.22
2018-09-24T10:09:14.214Z,7.31
2018-09-24T10:10:14.142Z,7.06
2018-09-24T10:11:14.754Z,6.86
2018-09-24T10:12:14.131Z,6.85
2018-09-24T10:13:13.820Z,6.92
2018-09-24T10:14:14.175Z,6.9
2018-09-24T10:15:14.113Z,6.92
2018-09-24T10:16:13.914Z,6.95
2018-09-24T10:17:14.042Z,7.02
2018-09-24T10:18:13.853Z,6.96
2018-09-24T10:19:14.078Z,7.08
2018-09-24T10:20:13.983Z,7.1
2018-09-24T10:21:14.020Z,7.02
2018-09-24T10:22:14.132Z,7.14
2018-09-24T10:23:14.092Z,7.02
2018-09-24T10:24:14.326Z,6.99
2018-09-24T10:25:14.021Z,7.03
2018-09-24T10:26:14.226Z,7.07
2018-09-24T10:27:13.812Z,7.06
2018-09-24T10:28:14.088Z,7.08
2018-09-24T10:29:21.174Z,6.94
2018-09-24T10:30:14.285Z,7.05
2018-09-24T10:31:13.876Z,7.04
2018-09-24T10:32:15.602Z,6.91
2018-09-24T10:33:13.972Z,6.88
2018-09-24T10:34:15.463Z,6.83
2018-09-24T10:35:15.700Z,6.75
2018-09-24T10:36:13.816Z,6.9
2018-09-24T10:37:15.318Z,6.87
2018-09-24T10:38:14.104Z,6.81
2018-09-24T10:39:13.799Z,6.69
2018-09-24T10:40:13.848Z,6.72
2018-09-24T10:41:13.819Z,6.82
2018-09-24T10:42:13.764Z,6.79
2018-09-24T10:43:13.926Z,6.78
2018-09-24T10:44:13.820Z,6.89
2018-09-24T10:45:13.851Z,6.82
2018-09-24T10:46:14.135Z,6.85
2018-09-24T10:47:13.791Z,6.73
2018-09-24T10:48:13.972Z,6.81
2018-09-24T10:49:13.780Z,6.69
2018-09-24T10:50:14.187Z,6.78
2018-09-24T10:51:14.176Z,6.51
2018-09-24T10:52:13.937Z,6.53
2018-09-24T10:53:14.028Z,6.52
2018-09-24T10:54:13.880Z,6.44
2018-09-24T10:55:13.966Z,6.62
2018-09-24T10:56:13.922Z,6.58
2018-09-24T10:57:13.990Z,6.55
2018-09-24T10:58:13.911Z,6.42
2018-09-24T10:59:14.137Z,6.4
2018-09-24T11:00:14.056Z,6.62
2018-09-24T11:01:14.391Z,6.56
2018-09-24T11:02:13.937Z,6.62
2018-09-24T11:03:14.253Z,6.64
2018-09-24T11:04:13.949Z,6.75
2018-09-24T11:05:13.839Z,6.71
2018-09-24T11:06:14.289Z,6.81
2018-09-24T11:07:13.931Z,6.65
2018-09-24T11:08:13.872Z,6.72
2018-09-24T11:09:13.948Z,6.56
2018-09-24T11:10:14.747Z,6.48
2018-09-24T11:11:13.945Z,6.68
2018-09-24T11:12:13.757Z,6.65
2018-09-24T11:13:13.929Z,6.71
2018-09-24T11:14:14.120Z,6.72
2018-09-24T11:15:14.145Z,6.63
2018-09-24T11:16:15.881Z,6.7
2018-09-24T11:17:17.499Z,6.72
2018-09-24T11:18:14.255Z,6.62
2018-09-24T11:19:13.941Z,6.83
2018-09-24T11:20:13.863Z,6.82
2018-09-24T11:21:14.099Z,6.62
2018-09-24T11:22:14.108Z,6.69
2018-09-24T11:23:13.870Z,6.58
2018-09-24T11:24:14.188Z,6.48
2018-09-24T11:25:14.192Z,6.43
2018-09-24T11:27:13.882Z,6.48
2018-09-24T11:28:14.324Z,6.55
2018-09-24T11:29:14.257Z,6.47
2018-09-24T11:30:14.236Z,6.58
2018-09-24T11:31:13.913Z,6.59
2018-09-24T11:32:14.346Z,6.42
2018-09-24T11:33:14.141Z,6.57
2018-09-24T11:34:14.461Z,6.58
2018-09-24T11:35:13.959Z,6.66
2018-09-24T11:36:14.100Z,6.69
2018-09-24T11:37:13.691Z,6.82
2018-09-24T11:38:13.997Z,6.72
2018-09-24T11:39:14.221Z,6.68
2018-09-24T11:40:14.088Z,6.57
2018-09-24T11:41:13.984Z,6.59
2018-09-24T11:42:14.294Z,6.49
2018-09-24T11:43:14.226Z,6.45
2018-09-24T11:44:14.018Z,6.39
2018-09-24T11:45:14.008Z,6.39
2018-09-24T11:46:14.049Z,6.46
2018-09-24T11:47:14.569Z,6.42
2018-09-24T11:48:14.355Z,6.49
2018-09-24T11:49:14.071Z,6.38
2018-09-24T11:50:13.882Z,6.56
2018-09-24T11:51:14.064Z,6.48
2018-09-24T11:52:14.080Z,6.66
2018-09-24T11:53:13.867Z,6.48
2018-09-24T11:54:13.976Z,6.48
2018-09-24T11:55:13.883Z,6.54
2018-09-24T11:56:14.392Z,6.52
2018-09-24T11:57:14.248Z,6.33
2018-09-24T11:58:13.893Z,6.3
2018-09-24T11:59:13.958Z,6.39
2018-09-24T12:00:13.956Z,6.41
2018-09-24T12:01:13.919Z,6.31
2018-09-24T12:02:14.191Z,6.4
2018-09-24T12:03:14.249Z,6.56
2018-09-24T12:04:13.859Z,6.53
2018-09-24T12:05:13.951Z,6.49
2018-09-24T12:06:14.191Z,6.52
2018-09-24T12:07:13.867Z,6.48
2018-09-24T12:08:14.012Z,6.37
2018-09-24T12:09:13.974Z,6.02
2018-09-24T12:10:14.463Z,6.21
2018-09-24T12:11:16.891Z,6.19
2018-09-24T12:12:13.983Z,6.08
2018-09-24T12:13:14.005Z,6.13
2018-09-24T12:14:14.030Z,6.1
2018-09-24T12:16:13.701Z,6.14
2018-09-24T12:17:13.983Z,6.1
2018-09-24T12:18:14.070Z,6.19
2018-09-24T12:19:13.977Z,5.99
2018-09-24T12:20:14.043Z,6
2018-09-24T12:21:13.889Z,5.94
2018-09-24T12:22:13.656Z,6.09
2018-09-24T12:23:14.824Z,5.94
2018-09-24T12:24:14.397Z,5.96
2018-09-24T12:25:14.028Z,5.92
2018-09-24T12:26:15.241Z,5.97
2018-09-24T12:27:14.365Z,6.1
2018-09-24T12:28:14.376Z,6.16
2018-09-24T12:29:15.052Z,5.98
2018-09-24T12:30:13.843Z,6.05
2018-09-24T12:31:13.952Z,6.01
2018-09-24T12:32:13.857Z,6.11
2018-09-24T12:33:13.830Z,6.03
2018-09-24T12:34:13.961Z,5.89
2018-09-24T12:35:14.045Z,5.91
2018-09-24T12:36:13.987Z,6.04
2018-09-24T12:37:13.879Z,6.14
2018-09-24T12:38:14.103Z,6.21
2018-09-24T12:39:14.321Z,6.08
2018-09-24T12:40:13.927Z,6.09
2018-09-24T12:41:13.897Z,5.89
2018-09-24T12:42:13.896Z,5.63
2018-09-24T12:43:14.006Z,5.61
2018-09-24T12:44:14.016Z,5.81
2018-09-24T12:45:13.821Z,5.83
2018-09-24T12:46:13.944Z,5.96
2018-09-24T12:47:13.728Z,5.85
2018-09-24T12:48:14.243Z,5.92
2018-09-24T12:49:13.870Z,5.99
2018-09-24T12:50:13.788Z,6.16
2018-09-24T12:51:13.979Z,5.95
2018-09-24T12:52:14.009Z,6.05
2018-09-24T12:53:14.087Z,6.13
2018-09-24T12:54:14.341Z,6.04
2018-09-24T12:55:13.931Z,6.04
2018-09-24T12:56:13.920Z,5.98
2018-09-24T12:57:13.838Z,6.04
2018-09-24T12:58:14.048Z,6.02
2018-09-24T12:59:14.057Z,5.94
2018-09-24T13:00:13.955Z,5.95
2018-09-24T13:01:13.725Z,6.01
2018-09-24T13:02:13.934Z,5.87
2018-09-24T13:03:13.775Z,5.85
2018-09-24T13:04:13.987Z,6.04
2018-09-24T13:05:13.759Z,5.95
2018-09-24T13:06:14.297Z,6.12
2018-09-24T13:07:14.064Z,6.18
2018-09-24T13:08:14.018Z,5.98
2018-09-24T13:09:14.018Z,6.11
2018-09-24T13:10:13.994Z,6
2018-09-24T13:11:14.309Z,6.04
2018-09-24T13:12:14.305Z,5.99
2018-09-24T13:13:13.905Z,5.86
2018-09-24T13:14:13.944Z,5.94
2018-09-24T13:15:13.741Z,5.99
2018-09-24T13:16:14.144Z,5.91
2018-09-24T13:17:13.939Z,5.95
2018-09-24T13:18:13.878Z,6.09
2018-09-24T13:19:14.480Z,5.96
2018-09-24T13:20:13.885Z,5.96
2018-09-24T13:21:13.889Z,5.94
2018-09-24T13:22:14.082Z,5.94
2018-09-24T13:23:13.899Z,5.94